Time;durP1;ratioP1;P1;durP2;ratioP2;P2;SDS_P1;SDS_P2;PMS_P1;PMS_P2;Temp;Humidity;BMP_temperature;BMP_pressure;BME280_temperature;BME280_humidity;BME280_pressure;Samples;Min_cycle;Max_cycle;Signal;HPM_P1;HPM_P2
2021/09/28 00:00:21;;;;;;;1999.90;999.90;;;13.40;99.90;;;;;;5013322;28;20482;-69
2021/09/28 00:02:46;;;;;;;1999.90;999.90;;;13.30;99.90;;;;;;5012836;28;20213;-68
2021/09/28 00:05:12;;;;;;;1999.90;999.90;;;13.40;99.90;;;;;;5013159;28;20177;-67
2021/09/28 00:07:38;;;;;;;1999.90;999.90;;;13.40;99.90;;;;;;5013463;28;20177;-69
2021/09/28 00:10:04;;;;;;;1999.90;999.90;;;13.40;99.90;;;;;;5014392;28;20861;-68
2021/09/28 00:12:31;;;;;;;1999.90;999.90;;;13.50;99.90;;;;;;5014258;28;20251;-68
2021/09/28 00:14:56;;;;;;;1999.90;999.90;;;13.50;99.90;;;;;;5013795;28;20887;-68
2021/09/28 00:17:22;;;;;;;1999.90;999.90;;;13.50;99.90;;;;;;5013334;28;20404;-68
2021/09/28 00:19:47;;;;;;;1999.90;999.90;;;13.50;99.90;;;;;;5013168;28;20173;-68
2021/09/28 00:22:13;;;;;;;1999.90;999.90;;;13.50;99.90;;;;;;5012968;28;20240;-68
2021/09/28 00:24:39;;;;;;;1999.90;999.90;;;13.50;99.90;;;;;;5012502;28;20247;-68
2021/09/28 00:27:04;;;;;;;1999.90;999.90;;;13.50;99.90;;;;;;5013047;28;20224;-68
2021/09/28 00:29:30;;;;;;;1999.90;999.90;;;13.60;99.90;;;;;;5012604;28;20205;-68
2021/09/28 00:31:56;;;;;;;1999.90;999.90;;;13.60;99.90;;;;;;5013258;28;20432;-68
2021/09/28 00:34:21;;;;;;;1999.90;999.90;;;13.70;99.90;;;;;;5012234;28;20178;-68
2021/09/28 00:36:47;;;;;;;1999.90;999.90;;;13.60;99.90;;;;;;5012996;28;20208;-67
2021/09/28 00:39:12;;;;;;;1999.90;999.90;;;13.70;99.90;;;;;;5012844;28;20611;-69
2021/09/28 00:41:38;;;;;;;1999.90;999.90;;;13.70;99.90;;;;;;5012685;28;20166;-68
2021/09/28 00:44:04;;;;;;;1999.90;999.90;;;13.70;99.90;;;;;;5015726;28;20170;-68
2021/09/28 00:46:29;;;;;;;1999.90;999.90;;;13.60;99.90;;;;;;5017048;28;20187;-68
2021/09/28 00:48:55;;;;;;;1999.90;999.90;;;13.70;99.90;;;;;;5016976;28;20260;-68
2021/09/28 00:51:21;;;;;;;1999.90;999.90;;;13.70;99.90;;;;;;5017054;28;20228;-69
2021/09/28 00:53:50;;;;;;;1999.90;999.90;;;13.60;99.90;;;;;;5015939;28;20395;-69
2021/09/28 00:56:18;;;;;;;1999.90;999.90;;;13.60;99.90;;;;;;5016160;28;20908;-68
2021/09/28 00:58:44;;;;;;;1999.90;999.90;;;13.60;99.90;;;;;;5016317;28;20477;-67
2021/09/28 01:01:10;;;;;;;1999.90;999.90;;;13.60;99.90;;;;;;5016957;28;20419;-68
2021/09/28 01:03:37;;;;;;;1999.90;999.90;;;13.50;99.90;;;;;;5016526;28;20451;-68
2021/09/28 01:06:03;;;;;;;1999.90;999.90;;;13.50;99.90;;;;;;5016783;28;20404;-68
2021/09/28 01:08:29;;;;;;;1999.90;999.90;;;13.50;99.90;;;;;;5016766;28;20418;-68
2021/09/28 01:10:55;;;;;;;1999.90;999.90;;;13.50;99.90;;;;;;5016274;28;21011;-68
2021/09/28 01:13:23;;;;;;;1999.90;999.90;;;13.50;99.90;;;;;;5016493;28;20218;-68
2021/09/28 01:16:00;;;;;;;1999.90;999.90;;;13.40;99.90;;;;;;5016468;28;20450;-69
2021/09/28 01:18:35;;;;;;;1999.90;999.90;;;13.40;99.90;;;;;;5016315;28;20439;-68
2021/09/28 01:21:03;;;;;;;1999.90;999.90;;;13.40;99.90;;;;;;5016472;28;20403;-68
2021/09/28 01:23:29;;;;;;;1999.90;999.90;;;13.30;99.90;;;;;;5015868;28;20498;-68
2021/09/28 01:25:55;;;;;;;1999.90;999.90;;;13.30;99.90;;;;;;5016142;28;20419;-69
2021/09/28 01:28:21;;;;;;;1999.90;999.90;;;13.30;99.90;;;;;;5015726;28;20272;-68
2021/09/28 01:30:46;;;;;;;1999.90;999.90;;;13.30;99.90;;;;;;5015536;28;20538;-68
2021/09/28 01:33:12;;;;;;;1999.90;999.90;;;13.30;99.90;;;;;;5015177;28;20456;-68
2021/09/28 01:35:39;;;;;;;1999.90;999.90;;;13.20;99.90;;;;;;5015440;28;20258;-69
2021/09/28 01:38:06;;;;;;;1999.90;999.90;;;13.30;99.90;;;;;;5015298;28;20419;-68
2021/09/28 01:40:33;;;;;;;1999.90;999.90;;;13.20;99.90;;;;;;5015601;28;20416;-68
2021/09/28 01:43:08;;;;;;;1999.90;999.90;;;13.20;99.90;;;;;;5014930;28;20456;-68
2021/09/28 01:45:35;;;;;;;1999.90;999.90;;;13.20;99.90;;;;;;5015195;28;20405;-68
2021/09/28 01:48:00;;;;;;;1999.90;999.90;;;13.10;99.90;;;;;;5015507;28;20425;-68
2021/09/28 01:50:26;;;;;;;1999.90;999.90;;;13.10;99.90;;;;;;5015356;28;21149;-68
2021/09/28 01:52:52;;;;;;;1999.90;999.90;;;13.10;99.90;;;;;;5015614;28;20189;-68
2021/09/28 01:55:17;;;;;;;1999.90;999.90;;;13.00;99.90;;;;;;5014819;28;20204;-68
2021/09/28 01:57:43;;;;;;;1999.90;999.90;;;13.00;99.90;;;;;;5015160;28;20566;-67
2021/09/28 02:00:09;;;;;;;1999.90;999.90;;;13.00;99.90;;;;;;5014995;28;20212;-69
2021/09/28 02:02:35;;;;;;;1999.90;999.90;;;13.00;99.90;;;;;;5015331;28;20203;-67
2021/09/28 02:05:00;;;;;;;1999.90;999.90;;;13.00;99.90;;;;;;5014972;28;20408;-68
2021/09/28 02:07:26;;;;;;;1999.90;999.90;;;13.00;99.90;;;;;;5015134;28;20635;-68
2021/09/28 02:09:51;;;;;;;1999.90;999.90;;;13.00;99.90;;;;;;5014753;28;20252;-68
2021/09/28 02:12:17;;;;;;;1999.90;999.90;;;13.00;99.90;;;;;;5015018;28;20698;-67
2021/09/28 02:14:42;;;;;;;1999.90;999.90;;;13.00;99.90;;;;;;5014064;28;20219;-68
2021/09/28 02:17:08;;;;;;;1999.90;999.90;;;13.00;99.90;;;;;;5014378;28;20173;-68
2021/09/28 02:19:34;;;;;;;1999.90;999.90;;;13.10;99.90;;;;;;5014335;28;20197;-68
2021/09/28 02:21:59;;;;;;;1999.90;999.90;;;13.10;99.90;;;;;;5014382;28;20194;-68
2021/09/28 02:24:25;;;;;;;1999.90;999.90;;;13.00;99.90;;;;;;5013925;28;20638;-69
2021/09/28 02:26:51;;;;;;;1999.90;999.90;;;13.10;99.90;;;;;;5014635;28;20169;-68
2021/09/28 02:29:16;;;;;;;1999.90;999.90;;;13.00;99.90;;;;;;5014429;28;20256;-68
2021/09/28 02:31:42;;;;;;;1999.90;999.90;;;13.00;99.90;;;;;;5014235;28;20789;-68
2021/09/28 02:34:09;;;;;;;1999.90;999.90;;;13.00;99.90;;;;;;5014006;28;20173;-68
2021/09/28 02:36:39;;;;;;;1999.90;999.90;;;13.00;99.90;;;;;;5014165;28;20600;-68
2021/09/28 02:39:08;;;;;;;1999.90;999.90;;;13.00;99.90;;;;;;5013727;28;20405;-68
2021/09/28 02:41:35;;;;;;;1999.90;999.90;;;13.00;99.90;;;;;;5013390;28;20435;-67
2021/09/28 02:44:00;;;;;;;1999.90;999.90;;;13.00;99.90;;;;;;5013281;28;20426;-68
2021/09/28 02:46:27;;;;;;;1999.90;999.90;;;13.00;99.90;;;;;;5013769;28;20492;-68
2021/09/28 02:48:52;;;;;;;1999.90;999.90;;;13.00;99.90;;;;;;5013534;28;20482;-68
2021/09/28 02:51:18;;;;;;;1999.90;999.90;;;13.00;99.90;;;;;;5013374;28;20460;-68
2021/09/28 02:53:43;;;;;;;1999.90;999.90;;;13.00;99.90;;;;;;5013353;28;20201;-68
2021/09/28 02:56:09;;;;;;;1999.90;999.90;;;13.00;99.90;;;;;;5013623;28;20180;-68
2021/09/28 02:58:34;;;;;;;1999.90;999.90;;;13.10;99.90;;;;;;5014003;28;20169;-67
2021/09/28 03:01:00;;;;;;;1999.90;999.90;;;13.10;99.90;;;;;;5014332;28;20173;-69
2021/09/28 03:03:25;;;;;;;1999.90;999.90;;;13.10;99.90;;;;;;5013858;28;20256;-68
2021/09/28 03:05:51;;;;;;;1999.90;999.90;;;13.10;99.90;;;;;;5013939;28;20233;-68
2021/09/28 03:08:17;;;;;;;1999.90;999.90;;;13.10;99.90;;;;;;5014181;28;20169;-68
2021/09/28 03:10:43;;;;;;;1999.90;999.90;;;13.10;99.90;;;;;;5014130;28;20537;-68
2021/09/28 03:13:10;;;;;;;1999.90;999.90;;;13.00;99.90;;;;;;5014258;28;20236;-67
2021/09/28 03:15:36;;;;;;;1999.90;999.90;;;13.10;99.90;;;;;;5014191;28;20418;-69
2021/09/28 03:18:01;;;;;;;1999.90;999.90;;;13.10;99.90;;;;;;5014378;28;20441;-69
2021/09/28 03:20:28;;;;;;;1999.90;999.90;;;13.10;99.90;;;;;;5014441;28;20184;-68
2021/09/28 03:22:53;;;;;;;1999.90;999.90;;;13.10;99.90;;;;;;5013744;28;20421;-68
2021/09/28 03:25:19;;;;;;;1999.90;999.90;;;13.10;99.90;;;;;;5013350;28;20427;-68
2021/09/28 03:27:44;;;;;;;1999.90;999.90;;;13.10;99.90;;;;;;5013621;28;20219;-69
2021/09/28 03:30:11;;;;;;;1999.90;999.90;;;13.10;99.90;;;;;;5013012;28;20200;-68
2021/09/28 03:32:36;;;;;;;1999.90;999.90;;;13.10;99.90;;;;;;5012836;28;20186;-69
2021/09/28 03:35:07;;;;;;;1999.90;999.90;;;13.10;99.90;;;;;;5012592;28;20413;-69
2021/09/28 03:37:33;;;;;;;1999.90;999.90;;;13.10;99.90;;;;;;5012832;28;20185;-69
2021/09/28 03:39:58;;;;;;;1999.90;999.90;;;13.10;99.90;;;;;;5012939;28;20481;-68
2021/09/28 03:42:24;;;;;;;1999.90;999.90;;;13.00;99.90;;;;;;5012847;28;20205;-68
2021/09/28 03:44:49;;;;;;;1999.90;999.90;;;13.10;99.90;;;;;;5012677;28;20165;-68
2021/09/28 03:47:15;;;;;;;1999.90;999.90;;;13.10;99.90;;;;;;5012727;28;20215;-69
2021/09/28 03:49:40;;;;;;;1999.90;999.90;;;13.10;99.90;;;;;;5012451;28;20194;-68
2021/09/28 03:52:07;;;;;;;1999.90;999.90;;;13.00;99.90;;;;;;5012498;28;20189;-69
2021/09/28 03:54:32;;;;;;;1999.90;999.90;;;13.00;99.90;;;;;;5012327;28;20201;-69
2021/09/28 03:56:58;;;;;;;1999.90;999.90;;;13.00;99.90;;;;;;5012502;28;20771;-67
2021/09/28 03:59:23;;;;;;;1999.90;999.90;;;13.00;99.90;;;;;;5012652;28;20197;-69
2021/09/28 04:01:49;;;;;;;1999.90;999.90;;;13.00;99.90;;;;;;5012926;28;20567;-68
2021/09/28 04:04:14;;;;;;;1999.90;999.90;;;12.90;99.90;;;;;;5012750;28;20179;-68
2021/09/28 04:06:40;;;;;;;1999.90;999.90;;;12.90;99.90;;;;;;5013308;28;20169;-68
2021/09/28 04:09:06;;;;;;;1999.90;999.90;;;12.80;99.90;;;;;;5013509;28;20176;-68
2021/09/28 04:11:31;;;;;;;1999.90;999.90;;;12.80;99.90;;;;;;5014238;28;20711;-68
2021/09/28 04:13:57;;;;;;;1999.90;999.90;;;12.70;99.90;;;;;;5012748;28;20200;-68
2021/09/28 04:16:24;;;;;;;1999.90;999.90;;;12.70;99.90;;;;;;5012233;28;20185;-68
2021/09/28 04:18:50;;;;;;;1999.90;999.90;;;12.60;99.90;;;;;;5015156;28;20222;-69
2021/09/28 04:21:16;;;;;;;1999.90;999.90;;;12.60;99.90;;;;;;5016145;28;20487;-68
2021/09/28 04:23:41;;;;;;;1999.90;999.90;;;12.50;99.90;;;;;;5015929;28;20229;-68
2021/09/28 04:26:07;;;;;;;1999.90;999.90;;;12.50;99.90;;;;;;5016203;28;20230;-68
2021/09/28 04:28:34;;;;;;;1999.90;999.90;;;12.40;99.90;;;;;;5016045;28;20288;-68
2021/09/28 04:31:00;;;;;;;1999.90;999.90;;;12.40;99.90;;;;;;5015798;28;20204;-68
2021/09/28 04:33:25;;;;;;;1999.90;999.90;;;12.40;99.90;;;;;;5015520;28;20432;-68
2021/09/28 04:35:51;;;;;;;1999.90;999.90;;;12.40;99.90;;;;;;5015856;28;20168;-68
2021/09/28 04:38:17;;;;;;;1999.90;999.90;;;12.30;99.90;;;;;;5017481;28;20228;-68
2021/09/28 04:40:42;;;;;;;1999.90;999.90;;;12.30;99.90;;;;;;5019255;28;20560;-68
2021/09/28 04:43:08;;;;;;;1999.90;999.90;;;12.30;99.90;;;;;;5018354;28;20212;-69
2021/09/28 04:45:33;;;;;;;1999.90;999.90;;;12.30;99.90;;;;;;5018214;28;20220;-68
2021/09/28 04:47:59;;;;;;;1999.90;999.90;;;12.30;99.90;;;;;;5018867;28;20201;-69
2021/09/28 04:50:24;;;;;;;1999.90;999.90;;;12.20;99.90;;;;;;5018458;28;20200;-69
2021/09/28 04:52:50;;;;;;;1999.90;999.90;;;12.30;99.90;;;;;;5018668;28;20552;-68
2021/09/28 04:55:16;;;;;;;1999.90;999.90;;;12.20;99.90;;;;;;5018429;28;20173;-69
2021/09/28 04:57:41;;;;;;;1999.90;999.90;;;12.20;99.90;;;;;;5019004;28;20184;-69
2021/09/28 05:00:08;;;;;;;1999.90;999.90;;;12.20;99.90;;;;;;5018902;28;20180;-69
2021/09/28 05:02:33;;;;;;;1999.90;999.90;;;12.20;99.90;;;;;;5015994;28;20201;-68
2021/09/28 05:04:59;;;;;;;1999.90;999.90;;;12.10;99.90;;;;;;5014964;28;20439;-68
2021/09/28 05:07:25;;;;;;;1999.90;999.90;;;12.10;99.90;;;;;;5015251;28;20650;-68
2021/09/28 05:09:50;;;;;;;1999.90;999.90;;;12.10;99.90;;;;;;5015160;28;20621;-68
2021/09/28 05:12:16;;;;;;;1999.90;999.90;;;12.10;99.90;;;;;;5015268;28;20251;-69
2021/09/28 05:14:41;;;;;;;1999.90;999.90;;;12.10;99.90;;;;;;5014824;28;20581;-69
2021/09/28 05:17:07;;;;;;;1999.90;999.90;;;12.00;99.90;;;;;;5015228;28;20512;-68
2021/09/28 05:19:33;;;;;;;1999.90;999.90;;;12.00;99.90;;;;;;5014981;28;20177;-69
2021/09/28 05:21:58;;;;;;;1999.90;999.90;;;12.00;99.90;;;;;;5015317;28;20196;-68
2021/09/28 05:24:24;;;;;;;1999.90;999.90;;;11.90;99.90;;;;;;5014761;28;20201;-69
2021/09/28 05:26:50;;;;;;;1999.90;999.90;;;11.90;99.90;;;;;;5015217;28;20184;-68
2021/09/28 05:29:16;;;;;;;1999.90;999.90;;;11.90;99.90;;;;;;5014425;28;20583;-68
2021/09/28 05:31:41;;;;;;;1999.90;999.90;;;11.80;99.90;;;;;;5014763;28;20172;-69
2021/09/28 05:34:07;;;;;;;1999.90;999.90;;;11.70;99.90;;;;;;5014483;28;20898;-68
2021/09/28 05:36:32;;;;;;;1999.90;999.90;;;11.70;99.90;;;;;;5014827;28;20249;-68
2021/09/28 05:38:58;;;;;;;1999.90;999.90;;;11.70;99.90;;;;;;5014718;28;20177;-69
2021/09/28 05:41:25;;;;;;;1999.90;999.90;;;11.70;99.90;;;;;;5014802;28;20543;-68
2021/09/28 05:43:51;;;;;;;1999.90;999.90;;;11.70;99.90;;;;;;5014057;28;20209;-68
2021/09/28 05:46:17;;;;;;;1999.90;999.90;;;11.70;99.90;;;;;;5014629;28;20412;-68
2021/09/28 05:48:42;;;;;;;1999.90;999.90;;;11.70;99.90;;;;;;5014509;28;20234;-69
2021/09/28 05:51:16;;;;;;;1999.90;999.90;;;11.70;99.90;;;;;;5014497;28;20292;-68
2021/09/28 05:53:43;;;;;;;1999.90;999.90;;;11.70;99.90;;;;;;5014954;28;20654;-69
2021/09/28 05:56:09;;;;;;;1999.90;999.90;;;11.70;99.90;;;;;;5016289;28;20541;-69
2021/09/28 05:58:35;;;;;;;1999.90;999.90;;;11.70;99.90;;;;;;5015934;28;20440;-68
2021/09/28 06:01:00;;;;;;;1999.90;999.90;;;11.80;99.90;;;;;;5015773;28;20698;-69
2021/09/28 06:03:26;;;;;;;1999.90;999.90;;;11.80;99.90;;;;;;5015191;28;20260;-69
2021/09/28 06:05:51;;;;;;;1999.90;999.90;;;11.90;99.90;;;;;;5015563;28;20201;-69
2021/09/28 06:08:17;;;;;;;1999.90;999.90;;;11.90;99.90;;;;;;5015605;28;20686;-69
2021/09/28 06:10:43;;;;;;;1999.90;999.90;;;11.90;99.90;;;;;;5015641;28;20617;-69
2021/09/28 06:13:08;;;;;;;1999.90;999.90;;;12.00;99.90;;;;;;5014732;28;20198;-69
2021/09/28 06:15:34;;;;;;;1999.90;999.90;;;12.00;99.90;;;;;;5014859;28;20577;-68
2021/09/28 06:17:59;;;;;;;1999.90;999.90;;;12.10;99.90;;;;;;5014886;28;20173;-68
2021/09/28 06:20:25;;;;;;;1999.90;999.90;;;12.10;99.90;;;;;;5015377;28;20181;-69
2021/09/28 06:22:51;;;;;;;1999.90;999.90;;;12.20;99.90;;;;;;5014773;28;20659;-69
2021/09/28 06:25:16;;;;;;;1999.90;999.90;;;12.30;99.90;;;;;;5014743;28;20181;-69
2021/09/28 06:27:42;;;;;;;1999.90;999.90;;;12.30;99.90;;;;;;5014818;28;20181;-69
2021/09/28 06:30:08;;;;;;;1999.90;999.90;;;12.40;99.90;;;;;;5014880;28;20248;-68
2021/09/28 06:32:33;;;;;;;1999.90;999.90;;;12.40;99.90;;;;;;5014579;28;20190;-69
2021/09/28 06:34:59;;;;;;;1999.90;999.90;;;12.40;99.90;;;;;;5014415;28;20419;-69
2021/09/28 06:37:25;;;;;;;1999.90;999.90;;;12.50;99.90;;;;;;5014930;28;20176;-69
2021/09/28 06:39:50;;;;;;;1999.90;999.90;;;12.60;99.90;;;;;;5014228;28;20176;-69
2021/09/28 06:42:16;;;;;;;1999.90;999.90;;;12.60;99.90;;;;;;5013961;28;20299;-69
2021/09/28 06:44:42;;;;;;;1999.90;999.90;;;12.70;99.90;;;;;;5014737;28;20174;-69
2021/09/28 06:47:07;;;;;;;1999.90;999.90;;;12.80;99.90;;;;;;5014923;28;20208;-69
2021/09/28 06:49:33;;;;;;;1999.90;999.90;;;12.90;99.90;;;;;;5014530;28;20185;-69
2021/09/28 06:51:59;;;;;;;1999.90;999.90;;;12.90;99.90;;;;;;5014701;28;20181;-68
2021/09/28 06:54:25;;;;;;;1999.90;999.90;;;13.00;99.90;;;;;;5014532;28;20196;-69
2021/09/28 06:56:50;;;;;;;1999.90;999.90;;;13.00;99.90;;;;;;5014603;28;20926;-69
2021/09/28 06:59:18;;;;;;;1999.90;999.90;;;13.10;99.90;;;;;;5014583;28;20400;-69
2021/09/28 07:01:44;;;;;;;1999.90;999.90;;;13.10;99.90;;;;;;5014498;28;20169;-69
2021/09/28 07:04:09;;;;;;;1999.90;999.90;;;13.10;99.90;;;;;;5014380;28;20515;-69
2021/09/28 07:06:35;;;;;;;1999.90;999.90;;;13.20;99.90;;;;;;5014353;28;20630;-69
2021/09/28 07:09:02;;;;;;;1999.90;999.90;;;13.20;99.90;;;;;;5014263;28;20172;-69
2021/09/28 07:11:28;;;;;;;1999.90;999.90;;;13.30;99.90;;;;;;5013895;28;20200;-69
2021/09/28 07:13:53;;;;;;;1999.90;999.90;;;13.30;99.90;;;;;;5013894;28;20421;-69
2021/09/28 07:16:20;;;;;;;1999.90;999.90;;;13.40;99.90;;;;;;5014154;28;20538;-68
2021/09/28 07:18:46;;;;;;;1999.90;999.90;;;13.40;99.90;;;;;;5013923;28;20197;-68
2021/09/28 07:21:12;;;;;;;1999.90;999.90;;;13.40;99.90;;;;;;5014193;28;20419;-69
2021/09/28 07:23:39;;;;;;;1999.90;999.90;;;13.50;99.90;;;;;;5013807;28;20437;-69
2021/09/28 07:26:05;;;;;;;1999.90;999.90;;;13.60;99.90;;;;;;5013718;28;20947;-69
2021/09/28 07:28:31;;;;;;;1999.90;999.90;;;13.70;99.90;;;;;;5013840;28;20400;-69
2021/09/28 07:30:56;;;;;;;1999.90;999.90;;;13.70;99.90;;;;;;5012337;28;20450;-69
2021/09/28 07:33:22;;;;;;;1999.90;999.90;;;13.70;99.90;;;;;;5013634;28;20760;-69
2021/09/28 07:35:48;;;;;;;1999.90;999.90;;;13.70;99.90;;;;;;5013547;28;20170;-69
2021/09/28 07:38:16;;;;;;;1999.90;999.90;;;13.70;99.90;;;;;;5013882;28;20165;-69
2021/09/28 07:40:44;;;;;;;1999.90;999.90;;;13.80;99.90;;;;;;5013824;28;20507;-69
2021/09/28 07:43:11;;;;;;;1999.90;999.90;;;13.90;99.90;;;;;;5013289;28;21027;-68
2021/09/28 07:45:36;;;;;;;1999.90;999.90;;;14.00;99.90;;;;;;5013501;28;20413;-69
2021/09/28 07:48:03;;;;;;;1999.90;999.90;;;14.20;99.90;;;;;;5013199;28;20444;-69
2021/09/28 07:50:29;;;;;;;1999.90;999.90;;;14.30;99.90;;;;;;5013348;28;20293;-69
2021/09/28 07:52:55;;;;;;;1999.90;999.90;;;14.30;99.90;;;;;;5013199;28;20451;-69
2021/09/28 07:55:20;;;;;;;1999.90;999.90;;;14.40;99.90;;;;;;5012747;28;20225;-69
2021/09/28 07:57:46;;;;;;;1999.90;999.90;;;14.50;99.90;;;;;;5013081;28;20167;-69
2021/09/28 08:00:12;;;;;;;1999.90;999.90;;;14.60;99.90;;;;;;5013053;28;20201;-69
2021/09/28 08:02:38;;;;;;;1999.90;999.90;;;14.70;99.90;;;;;;5012722;28;20208;-69
2021/09/28 08:05:06;;;;;;;1999.90;999.90;;;14.70;99.90;;;;;;5012714;28;20413;-69
2021/09/28 08:07:32;;;;;;;1999.90;999.90;;;14.80;99.90;;;;;;5013059;28;20440;-69
2021/09/28 08:09:57;;;;;;;1999.90;999.90;;;14.80;99.90;;;;;;5012877;28;20543;-69
2021/09/28 08:12:23;;;;;;;1999.90;999.90;;;14.90;99.90;;;;;;5012798;28;20185;-69
2021/09/28 08:14:49;;;;;;;1999.90;999.90;;;14.90;99.90;;;;;;5012610;28;20506;-68
2021/09/28 08:17:14;;;;;;;1999.90;999.90;;;15.00;99.90;;;;;;5012773;28;20322;-69
2021/09/28 08:19:40;;;;;;;1999.90;999.90;;;15.00;99.90;;;;;;5013065;28;20196;-69
2021/09/28 08:22:11;;;;;;;1999.90;999.90;;;15.20;99.90;;;;;;5013336;28;20201;-69
2021/09/28 08:24:42;;;;;;;1999.90;999.90;;;15.30;99.90;;;;;;5012759;28;20169;-69
2021/09/28 08:29:57;;;;;;;1999.90;999.90;;;15.50;99.90;;;;;;5013077;28;20518;-69
2021/09/28 08:32:23;;;;;;;1999.90;999.90;;;15.60;99.90;;;;;;5010350;28;20465;-72
2021/09/28 08:34:49;;;;;;;1999.90;999.90;;;15.70;99.90;;;;;;5010565;28;20930;-71
2021/09/28 08:37:16;;;;;;;1999.90;999.90;;;15.90;99.90;;;;;;5011216;28;20166;-71
2021/09/28 08:39:41;;;;;;;1999.90;999.90;;;16.00;99.90;;;;;;5011123;28;20634;-71
2021/09/28 08:42:07;;;;;;;1999.90;999.90;;;16.10;99.90;;;;;;5011382;28;20822;-70
2021/09/28 08:44:33;;;;;;;1999.90;999.90;;;16.20;99.90;;;;;;5010949;28;20176;-70
2021/09/28 08:46:59;;;;;;;1999.90;999.90;;;16.30;99.90;;;;;;5011594;28;20650;-71
2021/09/28 08:49:25;;;;;;;1999.90;999.90;;;16.40;99.90;;;;;;5011352;28;20432;-71
2021/09/28 08:51:51;;;;;;;1999.90;999.90;;;16.50;99.90;;;;;;5011313;28;20165;-71
2021/09/28 08:54:18;;;;;;;1999.90;999.90;;;16.60;99.90;;;;;;5006556;28;20167;-71
2021/09/28 08:56:44;;;;;;;1999.90;999.90;;;16.70;99.90;;;;;;5019529;28;20908;-70
2021/09/28 08:59:18;;;;;;;1999.90;999.90;;;16.80;99.90;;;;;;5030848;28;20473;-71
2021/09/28 09:02:02;;;;;;;1999.90;999.90;;;17.00;99.90;;;;;;5030654;28;20416;-69
2021/09/28 09:04:28;;;;;;;1999.90;999.90;;;17.10;99.90;;;;;;5032729;28;20480;-70
2021/09/28 09:06:57;;;;;;;1999.90;999.90;;;17.30;99.90;;;;;;5034785;28;20464;-70
2021/09/28 09:09:23;;;;;;;1999.90;999.90;;;17.50;99.90;;;;;;5034274;28;20414;-70
2021/09/28 09:11:50;;;;;;;1999.90;999.90;;;17.60;99.90;;;;;;5031907;28;20407;-69
2021/09/28 09:14:20;;;;;;;1999.90;999.90;;;17.70;99.90;;;;;;5018603;28;20540;-68
2021/09/28 09:16:48;;;;;;;1999.90;999.90;;;17.80;99.90;;;;;;5021680;28;20941;-68
2021/09/28 09:19:27;;;;;;;1999.90;999.90;;;17.90;99.90;;;;;;5014423;28;20534;-70
2021/09/28 09:21:58;;;;;;;1999.90;999.90;;;18.10;99.90;;;;;;5016757;28;20408;-69
2021/09/28 09:24:51;;;;;;;1999.90;999.90;;;18.30;99.90;;;;;;5016054;28;20421;-71
2021/09/28 09:27:32;;;;;;;1999.90;999.90;;;18.50;99.90;;;;;;5007361;28;20409;-70
2021/09/28 09:30:15;;;;;;;1999.90;999.90;;;18.70;99.90;;;;;;5014362;28;20571;-70
2021/09/28 09:32:50;;;;;;;1999.90;999.90;;;18.70;99.90;;;;;;5021277;28;20439;-70
2021/09/28 09:35:24;;;;;;;1999.90;999.90;;;18.70;99.90;;;;;;5003142;28;20428;-71
2021/09/28 09:37:51;;;;;;;1999.90;999.90;;;18.70;99.90;;;;;;5015965;28;20491;-70
2021/09/28 09:40:35;;;;;;;1999.90;999.90;;;18.70;99.90;;;;;;5008624;28;20495;-69
2021/09/28 09:43:01;;;;;;;1999.90;999.90;;;18.70;99.90;;;;;;5012739;28;20451;-69
2021/09/28 09:45:27;;;;;;;1999.90;999.90;;;18.70;99.90;;;;;;5013849;28;21173;-69
2021/09/28 09:47:53;;;;;;;1999.90;999.90;;;18.70;99.90;;;;;;5014101;28;20183;-72
2021/09/28 09:50:21;;;;;;;1999.90;999.90;;;18.80;99.90;;;;;;5014199;28;20198;-71
2021/09/28 09:53:05;;;;;;;1999.90;999.90;;;19.00;99.90;;;;;;5016956;28;20939;-70
2021/09/28 09:55:32;;;;;;;1999.90;999.90;;;19.10;99.90;;;;;;5013963;28;20787;-70
2021/09/28 09:57:59;;;;;;;1999.90;999.90;;;19.30;99.90;;;;;;5014184;28;20773;-71
2021/09/28 10:00:25;;;;;;;1999.90;999.90;;;19.40;99.90;;;;;;5013758;28;20419;-70
2021/09/28 10:02:51;;;;;;;1999.90;999.90;;;19.60;99.90;;;;;;5017773;28;20435;-70
2021/09/28 10:05:18;;;;;;;1999.90;999.90;;;19.70;99.90;;;;;;5021662;28;20415;-67
2021/09/28 10:07:48;;;;;;;1999.90;999.90;;;19.70;99.90;;;;;;5031108;28;20426;-69
2021/09/28 10:10:20;;;;;;;1999.90;999.90;;;19.80;99.90;;;;;;5011676;28;20462;-69
2021/09/28 10:12:45;;;;;;;1999.90;999.90;;;20.00;99.90;;;;;;5013716;28;20436;-69
2021/09/28 10:15:16;;;;;;;1999.90;999.90;;;20.00;99.90;;;;;;5015385;28;21127;-69
2021/09/28 10:17:44;;;;;;;1999.90;999.90;;;20.20;99.90;;;;;;5013887;28;20190;-69
2021/09/28 10:20:21;;;;;;;1999.90;999.90;;;20.30;99.90;;;;;;5013631;28;20811;-69
2021/09/28 10:22:55;;;;;;;1999.90;999.90;;;20.40;99.90;;;;;;5019957;28;20445;-69
2021/09/28 10:25:23;;;;;;;1999.90;999.90;;;20.60;99.90;;;;;;5013608;28;20447;-69
2021/09/28 10:27:56;;;;;;;1999.90;999.90;;;20.70;99.90;;;;;;5013318;28;20798;-70
2021/09/28 10:30:31;;;;;;;1999.90;999.90;;;20.80;99.90;;;;;;5012838;28;20461;-69
2021/09/28 10:33:17;;;;;;;1999.90;999.90;;;20.80;99.90;;;;;;5013317;28;20927;-69
2021/09/28 10:36:01;;;;;;;1999.90;999.90;;;20.90;99.90;;;;;;5013264;28;20422;-69
2021/09/28 10:38:44;;;;;;;1999.90;999.90;;;21.10;99.90;;;;;;5012783;28;20518;-69
2021/09/28 10:41:41;;;;;;;1999.90;999.90;;;21.20;99.90;;;;;;5019779;28;20416;-69
2021/09/28 10:44:25;;;;;;;1999.90;999.90;;;21.30;99.90;;;;;;5012911;28;20423;-68
2021/09/28 10:46:52;;;;;;;1999.90;999.90;;;21.40;99.90;;;;;;5013245;28;20419;-69
2021/09/28 10:49:21;;;;;;;1999.90;999.90;;;21.60;99.90;;;;;;5013001;28;20909;-69
2021/09/28 10:51:47;;;;;;;1999.90;999.90;;;21.70;99.90;;;;;;5012692;28;20416;-69
2021/09/28 10:54:12;;;;;;;1999.90;999.90;;;21.80;99.90;;;;;;5012627;28;20409;-69
2021/09/28 10:56:50;;;;;;;1999.90;999.90;;;21.90;99.90;;;;;;5013088;28;20196;-69
2021/09/28 10:59:15;;;;;;;1999.90;999.90;;;22.00;99.90;;;;;;5012618;28;20176;-69
2021/09/28 11:02:08;;;;;;;1999.90;999.90;;;22.00;99.90;;;;;;5012994;28;20443;-69
2021/09/28 11:04:34;;;;;;;1999.90;999.90;;;22.00;99.90;;;;;;5012832;28;20157;-69
2021/09/28 11:07:08;;;;;;;1999.90;999.90;;;22.20;99.90;;;;;;5012547;28;20421;-69
2021/09/28 11:09:45;;;;;;;1999.90;999.90;;;22.40;99.90;;;;;;5012858;28;20212;-68
2021/09/28 11:12:12;;;;;;;1999.90;999.90;;;22.30;99.90;;;;;;5012755;28;20434;-70
2021/09/28 11:14:38;;;;;;;1999.90;999.90;;;22.40;99.90;;;;;;5017462;28;20413;-69
2021/09/28 11:17:11;;;;;;;1999.90;999.90;;;22.50;99.90;;;;;;5012916;28;20426;-69
2021/09/28 11:19:38;;;;;;;1999.90;999.90;;;22.60;99.90;;;;;;5012701;28;20896;-69
2021/09/28 11:22:06;;;;;;;1999.90;999.90;;;22.80;99.90;;;;;;5011943;28;20401;-69
2021/09/28 11:24:32;;;;;;;1999.90;999.90;;;22.80;99.90;;;;;;5012391;28;20406;-69
2021/09/28 11:27:01;;;;;;;1999.90;999.90;;;22.80;99.90;;;;;;5012248;28;20413;-70
2021/09/28 11:29:28;;;;;;;1999.90;999.90;;;22.90;99.90;;;;;;5011739;28;20423;-68
2021/09/28 11:31:54;;;;;;;1999.90;999.90;;;22.80;99.90;;;;;;5012233;28;20454;-69
2021/09/28 11:34:29;;;;;;;1999.90;999.90;;;22.90;99.90;;;;;;5012168;28;20447;-69
2021/09/28 11:37:01;;;;;;;1999.90;999.90;;;23.20;99.90;;;;;;5011952;28;20161;-69
2021/09/28 11:39:30;;;;;;;1999.90;999.90;;;23.50;99.90;;;;;;5012762;28;20762;-69
2021/09/28 11:41:55;;;;;;;1999.90;999.90;;;23.80;99.90;;;;;;5012172;28;20422;-70
2021/09/28 11:44:21;;;;;;;1999.90;999.90;;;24.20;99.90;;;;;;5011557;28;20392;-69
2021/09/28 11:46:47;;;;;;;1999.90;999.90;;;24.50;99.90;;;;;;5012345;28;20219;-69
2021/09/28 11:49:12;;;;;;;1999.90;999.90;;;24.90;99.90;;;;;;5012113;28;20705;-71
2021/09/28 11:51:42;;;;;;;1999.90;999.90;;;25.40;99.90;;;;;;5011803;28;20196;-69
2021/09/28 11:54:14;;;;;;;1999.90;999.90;;;25.90;99.90;;;;;;5011986;28;20180;-69
2021/09/28 11:56:46;;;;;;;1999.90;999.90;;;26.00;99.90;;;;;;5012206;28;20894;-69
2021/09/28 11:59:13;;;;;;;1999.90;999.90;;;26.10;99.90;;;;;;5011778;28;20421;-69
2021/09/28 12:01:39;;;;;;;1999.90;999.90;;;26.20;99.90;;;;;;5012006;28;20442;-69